首页
METAR-TAF:

METAR-TAF

机场 :

安卡拉埃森博阿, 土耳其

埃森博阿国际机场

纬度: 40-07N, 经度: 032-59E, 海拔: 953米

当前天气观测

该预报发布于37分钟前的13:50 UTC
风速6节,风向西转西南
温度 5°C
湿度 81%
气压 1000 hPa
能见度10公里或以上
多云层高于2500英尺
多云层高于9000英尺
小阵雨

METAR: LTAC 221350Z 24006KT 9999 -SHRA BKN025 BKN090 05/02 Q1000 NOSIG RMK RWY21L 26005KT 220V300 RWY03L 21006KT 160V280 RWY21R 23004KT 170V270

时间: 17:27 (14:27 UTC)

预报

该预报发布于3小时和47分钟前的10:40 UTC
预报有效从22日的 12点(UTC)到 23日的 12点(UTC)
风速2节,风向多变
能见度10公里或以上
多云层高于3500英尺
多云层高于9000英尺
短暂存在
从 22日的 12点(UTC)到 22日的 16点(UTC)
小阵雨
短暂存在
从 22日的 20点(UTC)到 22日的 24点(UTC)
小雨
短暂存在
从 23日的 00点(UTC)到 23日的 04点(UTC)
小雨, 雪

TAF: LTAC 221040Z 2212/2312 VRB02KT 9999 BKN035 BKN090 TEMPO 2212/2216 -SHRA TEMPO 2220/2224 -RA TEMPO 2300/2304 -RASN

超过4000个机场的气象观测和天气预报(METAR&TAF报告)。

可查询的气象台以黄色和红色小点在地图上表示。

将鼠标移到小点上方,可查看气象台名称。

然后点击查看天气观测和预报。

如需切换地图:点击带黑十字的绿色按钮放大地图;点击带横线的绿色按钮缩小地图;或者点击绿色箭头查看邻近地区的地图。


METAR-TAF: